createdAt,value
2022-12-01T00:00:23.859Z,24.77
2022-12-01T00:02:50.738Z,27.88
2022-12-01T00:05:17.645Z,27.02
2022-12-01T00:07:44.413Z,27.85
2022-12-01T00:10:26.578Z,26.73
2022-12-01T00:12:53.437Z,26.83
2022-12-01T00:15:20.103Z,26.70
2022-12-01T00:17:47.650Z,29.98
2022-12-01T00:20:14.346Z,29.88
2022-12-01T00:22:41.084Z,27.35
2022-12-01T00:25:07.734Z,28.77
2022-12-01T00:27:34.447Z,28.63
2022-12-01T00:30:01.267Z,26.27
2022-12-01T00:32:28.175Z,29.40
2022-12-01T00:34:54.887Z,27.55
2022-12-01T00:37:21.658Z,28.33
2022-12-01T00:39:48.840Z,28.73
2022-12-01T00:42:15.923Z,27.50
2022-12-01T00:44:42.646Z,27.17
2022-12-01T00:47:09.325Z,27.50
2022-12-01T00:49:36.028Z,27.27
2022-12-01T00:52:02.804Z,28.35
2022-12-01T00:54:32.141Z,28.73
2022-12-01T00:56:59.348Z,27.88
2022-12-01T00:59:26.047Z,28.23
2022-12-01T01:01:52.841Z,25.95
2022-12-01T01:04:19.570Z,26.38
2022-12-01T01:06:46.322Z,31.80
2022-12-01T01:09:13.054Z,29.92
2022-12-01T01:11:39.747Z,26.80
2022-12-01T01:14:06.400Z,26.90
2022-12-01T01:16:33.167Z,28.80
2022-12-01T01:18:59.925Z,27.92
2022-12-01T01:21:26.606Z,28.30
2022-12-01T01:23:53.296Z,28.83
2022-12-01T01:26:20.038Z,30.42
2022-12-01T01:28:46.880Z,27.35
2022-12-01T01:31:13.614Z,28.23
2022-12-01T01:33:40.417Z,27.60
2022-12-01T01:36:07.127Z,27.40
2022-12-01T01:38:33.763Z,28.75
2022-12-01T01:41:00.454Z,28.80
2022-12-01T01:43:27.172Z,28.83
2022-12-01T01:45:53.884Z,28.77
2022-12-01T01:48:20.619Z,28.48
2022-12-01T01:50:47.316Z,27.85
2022-12-01T01:53:14.091Z,29.70
2022-12-01T01:55:40.760Z,27.85
2022-12-01T01:58:07.477Z,28.48
2022-12-01T02:00:34.171Z,27.17
2022-12-01T02:03:01.085Z,28.42
2022-12-01T02:05:27.826Z,26.35
2022-12-01T02:07:54.605Z,26.98
2022-12-01T02:10:24.464Z,27.90
2022-12-01T02:12:51.200Z,26.75
2022-12-01T02:15:17.867Z,27.48
2022-12-01T02:17:44.546Z,26.13
2022-12-01T02:20:11.353Z,26.05
2022-12-01T02:22:38.126Z,27.52
2022-12-01T02:25:04.798Z,27.40
2022-12-01T02:27:31.558Z,27.90
2022-12-01T02:29:58.307Z,28.33
2022-12-01T02:32:24.963Z,27.67
2022-12-01T02:34:51.725Z,26.23
2022-12-01T02:37:18.482Z,26.13
2022-12-01T02:39:45.210Z,24.75
2022-12-01T02:42:31.942Z,25.23
2022-12-01T02:44:58.621Z,25.33
2022-12-01T02:47:25.463Z,24.40
2022-12-01T02:49:52.281Z,24.13
2022-12-01T02:52:19.118Z,23.88
2022-12-01T02:54:45.855Z,23.50
2022-12-01T02:57:12.587Z,24.88
2022-12-01T02:59:39.274Z,23.63
2022-12-01T03:02:06.104Z,22.55
2022-12-01T03:04:32.948Z,23.88
2022-12-01T03:06:59.910Z,24.33
2022-12-01T03:09:27.482Z,21.85
2022-12-01T03:11:54.188Z,24.55
2022-12-01T03:14:21.022Z,23.20
2022-12-01T03:16:47.688Z,23.17
2022-12-01T03:19:14.402Z,23.02
2022-12-01T03:21:41.610Z,23.10
2022-12-01T03:24:08.384Z,23.15
2022-12-01T03:26:35.617Z,23.27
2022-12-01T03:29:02.342Z,22.98
2022-12-01T03:31:29.147Z,23.90
2022-12-01T03:33:55.909Z,24.30
2022-12-01T03:36:22.605Z,23.13
2022-12-01T03:38:49.384Z,24.25
2022-12-01T03:41:16.162Z,23.08
2022-12-01T03:43:42.950Z,23.48
2022-12-01T03:46:09.686Z,22.92
2022-12-01T03:48:36.418Z,22.90
2022-12-01T03:51:03.177Z,22.77
2022-12-01T03:53:29.925Z,23.95
2022-12-01T03:55:56.808Z,22.77
2022-12-01T03:58:23.524Z,23.30
2022-12-01T04:00:53.446Z,22.90
2022-12-01T04:03:20.206Z,22.70
2022-12-01T04:05:46.871Z,22.42
2022-12-01T04:08:13.619Z,23.02
2022-12-01T04:10:40.315Z,23.70
2022-12-01T04:13:12.037Z,23.10
2022-12-01T04:15:38.820Z,23.27
2022-12-01T04:18:05.552Z,22.17
2022-12-01T04:20:32.205Z,22.45
2022-12-01T04:22:58.912Z,21.40
2022-12-01T04:25:25.664Z,21.90
2022-12-01T04:27:52.352Z,21.10
2022-12-01T04:30:19.052Z,20.52
2022-12-01T04:32:45.750Z,22.70
2022-12-01T04:35:12.461Z,20.90
2022-12-01T04:37:39.145Z,20.42
2022-12-01T04:40:05.868Z,21.67
2022-12-01T04:42:32.574Z,21.10
2022-12-01T04:44:59.219Z,21.45
2022-12-01T04:47:25.963Z,21.60
2022-12-01T04:49:52.677Z,20.05
2022-12-01T04:52:19.366Z,20.40
2022-12-01T04:54:46.103Z,19.50
2022-12-01T04:57:12.811Z,19.20
2022-12-01T04:59:39.482Z,19.63
2022-12-01T05:02:06.325Z,18.42
2022-12-01T05:04:34.214Z,20.27
2022-12-01T05:07:00.894Z,19.00
2022-12-01T05:09:27.620Z,19.65
2022-12-01T05:11:54.315Z,20.52
2022-12-01T05:14:21.036Z,20.23
2022-12-01T05:16:47.911Z,19.08
2022-12-01T05:19:33.191Z,19.30
2022-12-01T05:21:59.902Z,20.10
2022-12-01T05:24:26.615Z,19.10
2022-12-01T05:26:53.350Z,19.98
2022-12-01T05:29:20.025Z,18.02
2022-12-01T05:31:47.105Z,18.33
2022-12-01T05:34:13.858Z,17.75
2022-12-01T05:36:40.641Z,17.08
2022-12-01T05:39:07.357Z,16.83
2022-12-01T05:41:34.050Z,17.85
2022-12-01T05:44:00.747Z,18.02
2022-12-01T05:46:27.562Z,18.23
2022-12-01T05:48:54.440Z,17.63
2022-12-01T05:51:21.148Z,17.83
2022-12-01T05:53:47.888Z,17.73
2022-12-01T05:56:14.605Z,16.08
2022-12-01T05:58:41.332Z,17.08
2022-12-01T06:01:08.077Z,16.02
2022-12-01T06:03:34.804Z,14.57
2022-12-01T06:06:01.499Z,16.00
2022-12-01T06:08:28.250Z,15.30
2022-12-01T06:10:55.043Z,14.85
2022-12-01T06:13:21.881Z,14.63
2022-12-01T06:15:48.549Z,15.52
2022-12-01T06:18:15.252Z,15.48
2022-12-01T06:20:41.951Z,15.18
2022-12-01T06:23:08.627Z,13.77
2022-12-01T06:25:35.339Z,15.05
2022-12-01T06:28:02.531Z,15.38
2022-12-01T06:30:29.179Z,14.55
2022-12-01T06:32:57.211Z,14.63
2022-12-01T06:35:24.002Z,14.88
2022-12-01T06:37:50.767Z,14.93
2022-12-01T06:40:17.565Z,14.40
2022-12-01T06:42:44.271Z,13.95
2022-12-01T06:45:11.009Z,15.18
2022-12-01T06:47:37.717Z,16.67
2022-12-01T06:50:05.321Z,16.63
2022-12-01T06:52:32.026Z,17.08
2022-12-01T06:55:00.238Z,16.10
2022-12-01T06:57:27.267Z,15.18
2022-12-01T06:59:54.327Z,14.95
2022-12-01T07:02:21.486Z,17.50
2022-12-01T07:04:48.329Z,17.60
2022-12-01T07:07:15.121Z,17.65
2022-12-01T07:09:41.836Z,17.55
2022-12-01T07:12:08.663Z,17.02
2022-12-01T07:14:35.908Z,17.30
2022-12-01T07:17:02.729Z,17.80
2022-12-01T07:19:29.683Z,16.25
2022-12-01T07:21:56.457Z,16.52
2022-12-01T07:24:23.170Z,16.77
2022-12-01T07:26:49.962Z,17.52
2022-12-01T07:29:16.978Z,16.02
2022-12-01T07:31:44.110Z,16.45
2022-12-01T07:34:10.822Z,16.73
2022-12-01T07:36:37.580Z,16.75
2022-12-01T07:39:04.271Z,15.98
2022-12-01T07:41:30.947Z,16.13
2022-12-01T07:43:57.667Z,15.07
2022-12-01T07:46:24.587Z,15.13
2022-12-01T07:48:51.728Z,15.77
2022-12-01T07:51:18.507Z,14.80
2022-12-01T07:53:45.368Z,15.20
2022-12-01T07:56:12.022Z,14.52
2022-12-01T07:58:38.757Z,14.45
2022-12-01T08:01:05.617Z,16.27
2022-12-01T08:03:32.360Z,14.55
2022-12-01T08:05:59.212Z,14.82
2022-12-01T08:08:25.906Z,14.45
2022-12-01T08:10:52.614Z,13.65
2022-12-01T08:13:19.325Z,14.40
2022-12-01T08:15:46.150Z,12.98
2022-12-01T08:18:13.633Z,13.27
2022-12-01T08:20:40.505Z,13.00
2022-12-01T08:23:08.203Z,13.18
2022-12-01T08:25:35.043Z,13.63
2022-12-01T08:28:01.727Z,14.73
2022-12-01T08:30:28.485Z,15.32
2022-12-01T08:32:55.271Z,15.25
2022-12-01T08:35:21.981Z,14.77
2022-12-01T08:37:48.781Z,15.38
2022-12-01T08:40:15.467Z,14.73
2022-12-01T08:42:42.164Z,15.50
2022-12-01T08:45:08.947Z,14.60
2022-12-01T08:47:35.670Z,14.18
2022-12-01T08:50:04.928Z,14.02
2022-12-01T08:52:31.664Z,14.85
2022-12-01T08:54:58.349Z,14.63
2022-12-01T08:57:25.066Z,14.55
2022-12-01T08:59:52.069Z,14.60
2022-12-01T09:02:25.406Z,15.38
2022-12-01T09:04:52.266Z,15.02
2022-12-01T09:07:23.015Z,15.20
2022-12-01T09:09:53.033Z,15.82
2022-12-01T09:12:19.719Z,15.27
2022-12-01T09:14:48.351Z,15.52
2022-12-01T09:17:15.402Z,14.15
2022-12-01T09:19:42.124Z,15.27
2022-12-01T09:22:08.903Z,15.60
2022-12-01T09:24:35.779Z,16.10
2022-12-01T09:27:03.453Z,14.93
2022-12-01T09:29:30.147Z,15.82
2022-12-01T09:31:57.230Z,15.13
2022-12-01T09:34:23.937Z,15.38
2022-12-01T09:36:50.659Z,15.52
2022-12-01T09:39:17.446Z,14.45
2022-12-01T09:41:44.168Z,16.27
2022-12-01T09:44:14.269Z,15.32
2022-12-01T09:46:41.550Z,15.95
2022-12-01T09:49:08.275Z,14.95
2022-12-01T09:51:37.004Z,16.20
2022-12-01T09:54:03.804Z,15.50
2022-12-01T09:56:30.772Z,15.32
2022-12-01T09:59:00.398Z,15.57
2022-12-01T10:01:27.523Z,14.95
2022-12-01T10:03:54.337Z,15.48
2022-12-01T10:06:29.179Z,14.48
2022-12-01T10:08:56.107Z,14.98
2022-12-01T10:11:22.769Z,14.45
2022-12-01T10:13:49.439Z,15.13
2022-12-01T10:16:16.235Z,14.60
2022-12-01T10:18:42.919Z,15.20
2022-12-01T10:21:09.632Z,15.55
2022-12-01T10:23:37.106Z,16.10
2022-12-01T10:26:03.991Z,16.30
2022-12-01T10:28:30.679Z,15.90
2022-12-01T10:30:57.521Z,16.38
2022-12-01T10:33:24.497Z,15.40
2022-12-01T10:35:51.236Z,14.52
2022-12-01T10:38:17.931Z,14.57
2022-12-01T10:40:44.787Z,14.45
2022-12-01T10:43:11.857Z,14.38
2022-12-01T10:45:38.687Z,15.68
2022-12-01T10:48:05.387Z,14.85
2022-12-01T10:50:32.115Z,14.65
2022-12-01T10:52:58.832Z,15.13
2022-12-01T10:55:26.480Z,13.65
2022-12-01T10:57:53.252Z,14.32
2022-12-01T11:00:43.231Z,14.13
2022-12-01T11:03:06.806Z,13.05
2022-12-01T11:05:33.697Z,13.55
2022-12-01T11:08:00.464Z,13.13
2022-12-01T11:10:27.316Z,13.75
2022-12-01T11:12:54.006Z,12.60
2022-12-01T11:15:20.701Z,12.63
2022-12-01T11:17:47.523Z,12.57
2022-12-01T11:20:14.282Z,12.25
2022-12-01T11:22:41.084Z,11.23
2022-12-01T11:25:07.867Z,12.13
2022-12-01T11:27:34.562Z,12.30
2022-12-01T11:30:02.796Z,12.10
2022-12-01T11:32:29.523Z,10.60
2022-12-01T11:34:56.240Z,10.57
2022-12-01T11:37:22.923Z,10.07
2022-12-01T11:39:49.948Z,10.63
2022-12-01T11:42:16.732Z,9.82
2022-12-01T11:47:30.221Z,12.60
2022-12-01T11:49:57.559Z,9.90
2022-12-01T11:52:24.239Z,8.50
2022-12-01T11:54:50.925Z,9.48
2022-12-01T11:57:33.689Z,9.55
2022-12-01T12:00:01.096Z,7.68
2022-12-01T12:02:27.897Z,8.10
2022-12-01T12:04:55.505Z,8.35
2022-12-01T12:07:22.244Z,7.93
2022-12-01T12:09:49.278Z,9.18
2022-12-01T12:12:16.273Z,8.65
2022-12-01T12:14:43.004Z,7.50
2022-12-01T12:17:09.751Z,7.45
2022-12-01T12:20:00.126Z,7.20
2022-12-01T12:22:23.308Z,7.20
2022-12-01T12:24:50.044Z,8.13
2022-12-01T12:27:16.764Z,7.55
2022-12-01T12:29:43.432Z,8.27
2022-12-01T12:32:10.257Z,8.27
2022-12-01T12:34:36.986Z,8.32
2022-12-01T12:37:03.759Z,8.95
2022-12-01T12:39:30.509Z,8.05
2022-12-01T12:41:57.247Z,8.75
2022-12-01T12:44:23.900Z,16.33
2022-12-01T12:46:50.597Z,20.27
2022-12-01T12:49:20.919Z,21.75
2022-12-01T12:51:47.869Z,20.35
2022-12-01T12:54:14.674Z,20.27
2022-12-01T12:56:41.453Z,22.05
2022-12-01T12:59:08.141Z,20.73
2022-12-01T13:01:34.941Z,12.00
2022-12-01T13:04:01.893Z,8.30
2022-12-01T13:06:28.578Z,8.15
2022-12-01T13:08:55.358Z,7.75
2022-12-01T13:11:22.014Z,7.22
2022-12-01T13:13:48.694Z,5.82
2022-12-01T13:16:15.522Z,5.40
2022-12-01T13:18:42.366Z,5.22
2022-12-01T13:21:09.132Z,5.32
2022-12-01T13:23:35.908Z,4.78
2022-12-01T13:26:02.687Z,6.10
2022-12-01T13:28:29.648Z,5.00
2022-12-01T13:30:56.419Z,6.22
2022-12-01T13:33:23.246Z,5.50
2022-12-01T13:36:07.054Z,5.35
2022-12-01T13:38:36.938Z,5.10
2022-12-01T13:41:04.011Z,5.30
2022-12-01T13:43:30.885Z,5.05
2022-12-01T13:45:57.609Z,5.03
2022-12-01T13:48:24.471Z,5.28
2022-12-01T13:50:51.318Z,5.40
2022-12-01T13:53:18.062Z,5.97
2022-12-01T13:55:44.875Z,4.75
2022-12-01T13:58:13.596Z,5.63
2022-12-01T14:00:41.316Z,5.00
2022-12-01T14:03:08.235Z,4.95
2022-12-01T14:05:35.058Z,4.82
2022-12-01T14:08:01.825Z,4.80
2022-12-01T14:10:28.670Z,5.00
2022-12-01T14:12:55.550Z,5.25
2022-12-01T14:15:22.220Z,4.65
2022-12-01T14:17:48.978Z,4.75
2022-12-01T14:20:16.566Z,5.68
2022-12-01T14:22:44.091Z,4.95
2022-12-01T14:25:20.063Z,5.63
2022-12-01T14:27:46.744Z,5.28
2022-12-01T14:30:13.526Z,5.30
2022-12-01T14:32:40.215Z,5.72
2022-12-01T14:35:06.963Z,5.75
2022-12-01T14:37:34.079Z,5.78
2022-12-01T14:40:01.303Z,6.25
2022-12-01T14:42:46.608Z,6.05
2022-12-01T14:45:13.636Z,6.18
2022-12-01T14:47:40.439Z,6.53
2022-12-01T14:50:07.204Z,6.80
2022-12-01T14:52:33.944Z,6.35
2022-12-01T14:55:00.665Z,7.13
2022-12-01T14:57:27.451Z,6.80
2022-12-01T14:59:54.278Z,7.82
2022-12-01T15:02:20.995Z,7.15
2022-12-01T15:04:48.060Z,7.40
2022-12-01T15:07:15.001Z,7.30
2022-12-01T15:09:41.696Z,7.90
2022-12-01T15:12:08.467Z,7.15
2022-12-01T15:14:35.262Z,7.10
2022-12-01T15:17:03.402Z,7.13
2022-12-01T15:19:30.119Z,6.95
2022-12-01T15:21:56.807Z,6.45
2022-12-01T15:24:23.750Z,7.55
2022-12-01T15:26:50.435Z,7.30
2022-12-01T15:29:17.170Z,7.28
2022-12-01T15:31:44.060Z,7.25
2022-12-01T15:34:10.731Z,8.10
2022-12-01T15:36:37.416Z,7.95
2022-12-01T15:39:07.241Z,8.23
2022-12-01T15:41:34.214Z,8.07
2022-12-01T15:44:03.585Z,8.20
2022-12-01T15:46:30.536Z,8.63
2022-12-01T15:48:57.326Z,8.63
2022-12-01T15:51:24.151Z,8.15
2022-12-01T15:53:50.891Z,8.23
2022-12-01T15:56:17.587Z,9.00
2022-12-01T15:58:44.391Z,8.07
2022-12-01T16:01:11.266Z,8.20
2022-12-01T16:03:38.062Z,8.82
2022-12-01T16:06:04.786Z,8.73
2022-12-01T16:08:31.536Z,8.57
2022-12-01T16:10:58.267Z,8.60
2022-12-01T16:13:24.991Z,8.88
2022-12-01T16:15:51.726Z,8.98
2022-12-01T16:18:18.474Z,9.63
2022-12-01T16:20:45.245Z,9.95
2022-12-01T16:23:12.017Z,9.65
2022-12-01T16:25:38.794Z,10.13
2022-12-01T16:28:05.518Z,10.38
2022-12-01T16:30:32.299Z,11.10
2022-12-01T16:32:59.112Z,10.32
2022-12-01T16:35:26.260Z,11.98
2022-12-01T16:37:53.271Z,11.40
2022-12-01T16:40:19.973Z,11.40
2022-12-01T16:42:46.645Z,10.73
2022-12-01T16:45:14.813Z,12.80
2022-12-01T16:47:41.558Z,12.75
2022-12-01T16:50:08.713Z,12.90
2022-12-01T16:52:44.249Z,12.93
2022-12-01T16:55:11.599Z,12.10
2022-12-01T16:57:38.399Z,12.57
2022-12-01T17:00:05.150Z,16.65
2022-12-01T17:02:31.866Z,25.27
2022-12-01T17:04:58.676Z,27.45
2022-12-01T17:07:25.439Z,29.95
2022-12-01T17:09:52.189Z,31.00
2022-12-01T17:12:18.926Z,30.23
2022-12-01T17:14:45.578Z,31.63
2022-12-01T17:17:12.260Z,32.42
2022-12-01T17:19:39.028Z,33.60
2022-12-01T17:22:05.737Z,33.17
2022-12-01T17:24:32.496Z,33.72
2022-12-01T17:26:59.268Z,35.08
2022-12-01T17:29:26.403Z,33.28
2022-12-01T17:31:53.141Z,33.25
2022-12-01T17:34:19.867Z,33.55
2022-12-01T17:36:46.539Z,33.50
2022-12-01T17:39:13.308Z,35.45
2022-12-01T17:41:42.138Z,32.88
2022-12-01T17:44:08.867Z,32.15
2022-12-01T17:46:35.616Z,32.15
2022-12-01T17:49:08.625Z,32.55
2022-12-01T17:51:35.322Z,28.52
2022-12-01T17:54:02.130Z,28.50
2022-12-01T17:56:28.880Z,27.10
2022-12-01T17:58:55.566Z,27.83
2022-12-01T18:01:26.892Z,29.85
2022-12-01T18:03:56.784Z,23.88
2022-12-01T18:06:24.408Z,24.92
2022-12-01T18:08:51.149Z,25.33
2022-12-01T18:11:17.855Z,26.80
2022-12-01T18:13:44.578Z,26.58
2022-12-01T18:16:11.348Z,26.13
2022-12-01T18:18:39.138Z,27.90
2022-12-01T18:21:06.292Z,27.60
2022-12-01T18:23:33.023Z,28.75
2022-12-01T18:25:59.771Z,28.45
2022-12-01T18:28:26.463Z,28.42
2022-12-01T18:30:53.346Z,30.52
2022-12-01T18:33:21.016Z,29.73
2022-12-01T18:35:47.748Z,30.50
2022-12-01T18:38:14.465Z,29.25
2022-12-01T18:40:41.197Z,28.95
2022-12-01T18:43:07.877Z,29.90
2022-12-01T18:45:35.001Z,29.08
2022-12-01T18:48:01.741Z,29.15
2022-12-01T18:50:28.399Z,29.17
2022-12-01T18:52:55.087Z,29.40
2022-12-01T18:55:21.788Z,30.98
2022-12-01T18:57:48.548Z,29.45
2022-12-01T19:00:15.268Z,30.70
2022-12-01T19:02:42.042Z,29.33
2022-12-01T19:05:08.820Z,30.08
2022-12-01T19:07:35.563Z,29.90
2022-12-01T19:10:03.050Z,29.35
2022-12-01T19:12:29.812Z,29.45
2022-12-01T19:14:56.979Z,31.23
2022-12-01T19:17:23.749Z,29.83
2022-12-01T19:19:50.554Z,31.35
2022-12-01T19:22:17.905Z,30.75
2022-12-01T19:24:49.878Z,30.67
2022-12-01T19:27:17.063Z,31.35
2022-12-01T19:29:43.759Z,30.75
2022-12-01T19:32:10.875Z,30.83
2022-12-01T19:34:37.910Z,31.17
2022-12-01T19:37:04.608Z,31.48
2022-12-01T19:39:31.450Z,29.73
2022-12-01T19:41:58.231Z,31.48
2022-12-01T19:44:24.973Z,31.08
2022-12-01T19:46:51.697Z,32.20
2022-12-01T19:49:18.455Z,31.38
2022-12-01T19:51:45.329Z,31.45
2022-12-01T19:54:12.187Z,30.90
2022-12-01T19:56:39.004Z,31.45
2022-12-01T19:59:07.888Z,32.55
2022-12-01T20:01:34.581Z,31.65
2022-12-01T20:04:01.384Z,33.50
2022-12-01T20:06:28.120Z,32.28
2022-12-01T20:08:54.815Z,32.95
2022-12-01T20:11:21.545Z,33.08
2022-12-01T20:13:48.287Z,32.72
2022-12-01T20:16:15.062Z,34.63
2022-12-01T20:18:41.984Z,34.97
2022-12-01T20:21:08.713Z,35.40
2022-12-01T20:23:35.475Z,33.17
2022-12-01T20:26:02.357Z,35.33
2022-12-01T20:28:29.049Z,33.55
2022-12-01T20:30:55.769Z,34.35
2022-12-01T20:33:22.497Z,33.25
2022-12-01T20:35:49.249Z,33.58
2022-12-01T20:38:15.992Z,34.80
2022-12-01T20:40:42.661Z,33.97
2022-12-01T20:43:09.428Z,34.65
2022-12-01T20:45:36.205Z,33.80
2022-12-01T20:48:02.868Z,33.45
2022-12-01T20:50:29.568Z,32.85
2022-12-01T20:52:56.347Z,33.70
2022-12-01T20:55:24.463Z,32.72
2022-12-01T20:57:51.453Z,32.22
2022-12-01T21:00:18.157Z,32.80
2022-12-01T21:02:46.011Z,33.20
2022-12-01T21:05:12.846Z,31.77
2022-12-01T21:07:39.544Z,31.17
2022-12-01T21:10:06.213Z,31.67
2022-12-01T21:12:51.686Z,31.10
2022-12-01T21:15:18.357Z,31.27
2022-12-01T21:17:45.101Z,32.65
2022-12-01T21:20:17.996Z,32.85
2022-12-01T21:22:44.690Z,30.63
2022-12-01T21:25:11.356Z,33.72
2022-12-01T21:27:38.055Z,32.67
2022-12-01T21:30:04.727Z,31.88
2022-12-01T21:32:31.538Z,32.72
2022-12-01T21:34:58.259Z,31.80
2022-12-01T21:37:24.977Z,32.28
2022-12-01T21:39:51.769Z,30.77
2022-12-01T21:42:18.504Z,31.58
2022-12-01T21:44:45.556Z,30.52
2022-12-01T21:47:12.249Z,30.77
2022-12-01T21:49:39.031Z,28.48
2022-12-01T21:52:05.755Z,29.23
2022-12-01T21:54:32.437Z,28.38
2022-12-01T21:56:59.191Z,29.83
2022-12-01T21:59:25.876Z,29.92
2022-12-01T22:01:52.612Z,31.05
2022-12-01T22:04:19.382Z,30.40
2022-12-01T22:06:46.126Z,29.33
2022-12-01T22:09:12.818Z,30.65
2022-12-01T22:11:39.601Z,31.17
2022-12-01T22:14:06.323Z,31.85
2022-12-01T22:16:32.985Z,31.25
2022-12-01T22:18:59.695Z,29.92
2022-12-01T22:21:26.365Z,30.52
2022-12-01T22:23:53.053Z,29.65
2022-12-01T22:26:19.755Z,29.30
2022-12-01T22:28:46.532Z,29.35
2022-12-01T22:31:13.380Z,31.23
2022-12-01T22:33:40.163Z,30.85
2022-12-01T22:36:06.864Z,29.65
2022-12-01T22:38:33.923Z,30.05
2022-12-01T22:41:00.586Z,31.48
2022-12-01T22:43:27.357Z,30.08
2022-12-01T22:45:54.067Z,30.95
2022-12-01T22:48:20.722Z,31.35
2022-12-01T22:50:51.751Z,28.98
2022-12-01T22:53:19.048Z,30.80
2022-12-01T22:55:45.714Z,28.70
2022-12-01T22:58:12.438Z,29.33
2022-12-01T23:00:39.186Z,29.45
2022-12-01T23:03:05.930Z,30.25
2022-12-01T23:05:32.950Z,30.65
2022-12-01T23:07:59.694Z,29.55
2022-12-01T23:10:26.405Z,30.73
2022-12-01T23:12:53.133Z,29.70
2022-12-01T23:15:20.143Z,29.52
2022-12-01T23:17:46.794Z,28.77
2022-12-01T23:20:13.491Z,29.00
2022-12-01T23:22:40.192Z,30.05
2022-12-01T23:25:06.883Z,28.35
2022-12-01T23:27:33.595Z,27.42
2022-12-01T23:30:00.263Z,28.17
2022-12-01T23:32:26.954Z,26.60
2022-12-01T23:34:59.756Z,28.20
2022-12-01T23:37:26.906Z,27.85
2022-12-01T23:39:53.611Z,28.27
2022-12-01T23:42:20.271Z,28.38
2022-12-01T23:44:46.949Z,30.35
2022-12-01T23:47:13.713Z,28.60
2022-12-01T23:49:40.653Z,30.65
2022-12-01T23:52:07.331Z,29.80
2022-12-01T23:54:34.053Z,31.10
2022-12-01T23:57:00.738Z,30.25
2022-12-01T23:59:27.444Z,29.70
